createdAt,value
2022-10-15T00:00:25.245Z,998.6
2022-10-15T00:01:27.302Z,998.6
2022-10-15T00:02:29.278Z,998.6
2022-10-15T00:03:31.200Z,998.6
2022-10-15T00:04:32.220Z,998.5
2022-10-15T00:05:33.178Z,998.5
2022-10-15T00:06:34.240Z,998.6
2022-10-15T00:07:36.292Z,998.6
2022-10-15T00:08:38.257Z,998.6
2022-10-15T00:09:40.190Z,998.6
2022-10-15T00:10:42.239Z,998.6
2022-10-15T00:11:44.302Z,998.6
2022-10-15T00:12:46.298Z,998.6
2022-10-15T00:13:48.305Z,998.6
2022-10-15T00:14:50.346Z,998.5
2022-10-15T00:15:52.237Z,998.5
2022-10-15T00:16:53.199Z,998.5
2022-10-15T00:17:54.218Z,998.5
2022-10-15T00:18:55.266Z,998.5
2022-10-15T00:19:57.740Z,998.5
2022-10-15T00:20:59.204Z,998.4
2022-10-15T00:23:01.317Z,998.4
2022-10-15T00:24:03.296Z,998.4
2022-10-15T00:25:05.338Z,998.4
2022-10-15T00:26:07.397Z,998.4
2022-10-15T00:27:09.261Z,998.4
2022-10-15T00:28:10.245Z,998.3
2022-10-15T00:29:12.284Z,998.3
2022-10-15T00:30:13.252Z,998.3
2022-10-15T00:31:14.220Z,998.3
2022-10-15T00:32:15.337Z,998.4
2022-10-15T00:33:16.220Z,998.1
2022-10-15T00:34:17.199Z,998.3
2022-10-15T00:35:18.198Z,998.3
2022-10-15T00:36:19.197Z,998.3
2022-10-15T00:37:20.330Z,998.3
2022-10-15T00:38:21.197Z,998.3
2022-10-15T00:39:22.218Z,998.3
2022-10-15T00:40:23.220Z,998.3
2022-10-15T00:41:24.260Z,998.3
2022-10-15T00:42:25.607Z,998.3
2022-10-15T00:43:27.318Z,998.2
2022-10-15T00:44:29.243Z,998.2
2022-10-15T00:45:31.278Z,998.3
2022-10-15T00:46:33.258Z,998.3
2022-10-15T00:47:35.265Z,998.2
2022-10-15T00:48:37.278Z,998.2
2022-10-15T00:49:39.346Z,998.2
2022-10-15T00:50:41.337Z,998.2
2022-10-15T00:51:43.257Z,998.2
2022-10-15T00:52:45.297Z,998.2
2022-10-15T00:53:47.237Z,997.9
2022-10-15T00:54:49.337Z,998.2
2022-10-15T00:55:51.279Z,998.3
2022-10-15T00:56:53.274Z,998.3
2022-10-15T00:57:55.327Z,998.3
2022-10-15T00:58:57.825Z,998.2
2022-10-15T00:59:59.278Z,998.1
2022-10-15T01:01:01.328Z,998.2
2022-10-15T01:02:02.337Z,998.1
2022-10-15T01:03:04.283Z,998.1
2022-10-15T01:04:06.300Z,998.1
2022-10-15T01:05:08.346Z,998.1
2022-10-15T01:06:10.286Z,998
2022-10-15T01:07:11.347Z,998.1
2022-10-15T01:08:13.317Z,998
2022-10-15T01:09:15.218Z,998.1
2022-10-15T01:10:17.257Z,998.1
2022-10-15T01:11:19.365Z,998.1
2022-10-15T01:12:21.497Z,998
2022-10-15T01:13:23.314Z,998
2022-10-15T01:14:25.277Z,998
2022-10-15T01:15:27.338Z,997.9
2022-10-15T01:16:29.300Z,997.9
2022-10-15T01:17:31.314Z,997.8
2022-10-15T01:18:33.317Z,997.9
2022-10-15T01:19:35.317Z,997.9
2022-10-15T01:20:37.318Z,997.9
2022-10-15T01:21:39.348Z,997.9
2022-10-15T01:22:41.279Z,997.9
2022-10-15T01:23:43.319Z,997.9
2022-10-15T01:24:45.297Z,997.8
2022-10-15T01:25:47.318Z,997.7
2022-10-15T01:26:49.397Z,997.8
2022-10-15T01:27:51.278Z,997.8
2022-10-15T01:28:53.382Z,997.7
2022-10-15T01:29:55.257Z,997.8
2022-10-15T01:30:57.298Z,997.8
2022-10-15T01:31:59.323Z,997.8
2022-10-15T01:33:01.358Z,997.8
2022-10-15T01:34:03.340Z,997.7
2022-10-15T01:35:05.319Z,997.7
2022-10-15T01:36:06.475Z,997.7
2022-10-15T01:37:07.260Z,997.7
2022-10-15T01:38:08.279Z,997.6
2022-10-15T01:39:09.277Z,997.6
2022-10-15T01:40:10.278Z,997.6
2022-10-15T01:41:11.285Z,997.6
2022-10-15T01:42:13.297Z,997.5
2022-10-15T01:43:14.321Z,997.5
2022-10-15T01:44:15.285Z,997.5
2022-10-15T01:45:16.246Z,997.5
2022-10-15T01:46:17.233Z,997.5
2022-10-15T01:47:19.359Z,997.5
2022-10-15T01:48:21.258Z,997.5
2022-10-15T01:49:22.337Z,997.5
2022-10-15T01:50:23.259Z,997.5
2022-10-15T01:51:24.295Z,997.5
2022-10-15T01:52:26.443Z,997.5
2022-10-15T01:53:28.317Z,997.5
2022-10-15T01:54:30.316Z,997.5
2022-10-15T01:55:32.239Z,997.5
2022-10-15T01:56:33.258Z,997.5
2022-10-15T01:57:34.299Z,997.4
2022-10-15T01:58:35.278Z,997.4
2022-10-15T01:59:36.343Z,997.4
2022-10-15T02:03:54.332Z,997.4
2022-10-15T02:04:56.316Z,997.4
2022-10-15T02:05:58.336Z,997.4
2022-10-15T02:07:00.325Z,997.4
2022-10-15T02:08:02.358Z,997.4
2022-10-15T02:09:04.317Z,997.4
2022-10-15T02:10:06.325Z,997.4
2022-10-15T02:11:07.236Z,997.4
2022-10-15T02:12:08.302Z,997.4
2022-10-15T02:13:09.296Z,997.3
2022-10-15T02:14:10.196Z,997.3
2022-10-15T02:15:11.402Z,997.3
2022-10-15T02:16:13.295Z,997.3
2022-10-15T02:17:15.317Z,997.3
2022-10-15T02:18:17.357Z,997.3
2022-10-15T02:19:19.338Z,997.2
2022-10-15T02:20:21.383Z,997.2
2022-10-15T02:21:23.336Z,997.2
2022-10-15T02:22:25.615Z,997.2
2022-10-15T02:23:27.296Z,997.1
2022-10-15T02:24:29.338Z,997.1
2022-10-15T02:25:31.416Z,997.1
2022-10-15T02:26:33.357Z,997.1
2022-10-15T02:27:35.397Z,997
2022-10-15T02:28:37.392Z,997
2022-10-15T02:29:39.397Z,997
2022-10-15T02:30:41.403Z,997
2022-10-15T02:31:43.269Z,997.1
2022-10-15T02:32:45.262Z,997.1
2022-10-15T02:33:46.276Z,997.1
2022-10-15T02:34:47.296Z,997
2022-10-15T02:35:48.257Z,997.1
2022-10-15T02:36:49.318Z,997
2022-10-15T02:37:50.297Z,997
2022-10-15T02:38:51.376Z,997
2022-10-15T02:39:52.340Z,997
2022-10-15T02:40:53.338Z,997
2022-10-15T02:41:55.309Z,997
2022-10-15T02:42:57.457Z,996.9
2022-10-15T02:43:59.257Z,996.9
2022-10-15T02:45:00.298Z,997
2022-10-15T02:46:01.391Z,997
2022-10-15T02:47:03.356Z,997
2022-10-15T02:48:05.316Z,996.9
2022-10-15T02:49:06.328Z,997
2022-10-15T02:50:07.335Z,996.9
2022-10-15T02:51:08.376Z,996.9
2022-10-15T02:52:10.357Z,996.8
2022-10-15T02:53:12.336Z,996.9
2022-10-15T02:54:14.316Z,996.9
2022-10-15T02:55:16.376Z,996.6
2022-10-15T02:56:18.424Z,996.8
2022-10-15T02:57:20.369Z,996.8
2022-10-15T02:58:21.314Z,996.9
2022-10-15T02:59:22.288Z,996.8
2022-10-15T03:00:23.296Z,996.8
2022-10-15T03:01:24.450Z,996.8
2022-10-15T03:02:25.384Z,996.8
2022-10-15T03:03:27.359Z,996.8
2022-10-15T03:04:29.297Z,996.8
2022-10-15T03:05:30.318Z,996.8
2022-10-15T03:06:31.398Z,996.8
2022-10-15T03:07:32.356Z,996.7
2022-10-15T03:08:34.405Z,996.7
2022-10-15T03:09:36.316Z,996.6
2022-10-15T03:10:37.302Z,996.6
2022-10-15T03:11:38.325Z,996.6
2022-10-15T03:12:39.336Z,996.6
2022-10-15T03:13:40.296Z,996.6
2022-10-15T03:14:41.377Z,996.6
2022-10-15T03:15:43.376Z,996.6
2022-10-15T03:16:45.420Z,996.6
2022-10-15T03:17:47.437Z,996.6
2022-10-15T03:18:49.343Z,996.6
2022-10-15T03:19:51.456Z,996.6
2022-10-15T03:20:53.357Z,996.6
2022-10-15T03:21:54.337Z,996.6
2022-10-15T03:22:55.354Z,996.6
2022-10-15T03:23:56.299Z,996.6
2022-10-15T03:24:57.336Z,996.6
2022-10-15T03:25:58.457Z,996.6
2022-10-15T03:27:00.336Z,996.6
2022-10-15T03:28:02.339Z,996.6
2022-10-15T03:29:04.382Z,996.6
2022-10-15T03:30:06.405Z,996.5
2022-10-15T03:31:08.336Z,996.6
2022-10-15T03:32:09.310Z,996.6
2022-10-15T03:33:10.361Z,996.6
2022-10-15T03:34:11.288Z,996.6
2022-10-15T03:35:13.293Z,996.5
2022-10-15T03:36:14.457Z,996.5
2022-10-15T03:37:16.395Z,996.5
2022-10-15T03:38:18.288Z,996.5
2022-10-15T03:39:20.364Z,996.5
2022-10-15T03:40:22.320Z,996.5
2022-10-15T03:41:24.397Z,996.5
2022-10-15T03:42:26.497Z,996.5
2022-10-15T03:43:28.394Z,996.5
2022-10-15T03:44:30.337Z,996.5
2022-10-15T03:45:32.397Z,996.5
2022-10-15T03:46:34.377Z,996.5
2022-10-15T03:47:36.460Z,996.5
2022-10-15T03:48:38.381Z,996.4
2022-10-15T03:49:40.420Z,996.4
2022-10-15T03:50:42.475Z,996.4
2022-10-15T03:51:44.378Z,996.4
2022-10-15T03:52:46.406Z,996.4
2022-10-15T03:53:48.378Z,996.4
2022-10-15T03:54:50.638Z,996.4
2022-10-15T03:55:52.396Z,996.4
2022-10-15T03:56:54.337Z,996.4
2022-10-15T03:57:55.337Z,996.4
2022-10-15T03:58:56.379Z,996.4
2022-10-15T03:59:58.598Z,996.4
2022-10-15T04:01:00.418Z,996.3
2022-10-15T04:02:02.378Z,996.3
2022-10-15T04:03:04.364Z,996.3
2022-10-15T04:04:06.400Z,996.3
2022-10-15T04:05:08.484Z,996.2
2022-10-15T04:06:10.396Z,996.3
2022-10-15T04:07:12.374Z,996.3
2022-10-15T04:08:14.356Z,996.3
2022-10-15T04:09:16.299Z,996.3
2022-10-15T04:10:17.399Z,996.3
2022-10-15T04:11:18.357Z,996.2
2022-10-15T04:12:19.337Z,996.2
2022-10-15T04:13:20.359Z,996.2
2022-10-15T04:14:21.336Z,996.2
2022-10-15T04:15:22.357Z,996.2
2022-10-15T04:16:23.398Z,996.2
2022-10-15T04:17:24.376Z,996.2
2022-10-15T04:18:25.379Z,996.1
2022-10-15T04:19:26.344Z,996.2
2022-10-15T04:20:27.416Z,996.2
2022-10-15T04:21:29.377Z,996.2
2022-10-15T04:22:31.378Z,996.2
2022-10-15T04:23:33.357Z,995.9
2022-10-15T04:24:34.376Z,996.1
2022-10-15T04:25:35.378Z,996.1
2022-10-15T04:26:36.398Z,996.1
2022-10-15T04:27:37.337Z,996.3
2022-10-15T04:28:38.418Z,996.2
2022-10-15T04:29:39.377Z,996.1
2022-10-15T04:30:40.417Z,996.1
2022-10-15T04:31:41.372Z,996.1
2022-10-15T04:32:42.338Z,996.2
2022-10-15T04:33:43.443Z,996.2
2022-10-15T04:34:44.357Z,996.2
2022-10-15T04:35:45.357Z,996.2
2022-10-15T04:36:46.358Z,996.3
2022-10-15T04:37:47.297Z,996.3
2022-10-15T04:38:48.438Z,996.3
2022-10-15T04:39:49.336Z,996.3
2022-10-15T04:40:50.324Z,996.3
2022-10-15T04:41:51.325Z,996.3
2022-10-15T04:42:52.416Z,996.2
2022-10-15T04:43:53.379Z,996.2
2022-10-15T04:44:54.357Z,996.2
2022-10-15T04:45:55.377Z,996.2
2022-10-15T04:46:56.422Z,996.3
2022-10-15T04:47:57.417Z,996.4
2022-10-15T04:48:59.460Z,996.3
2022-10-15T04:50:01.512Z,996.3
2022-10-15T04:51:03.438Z,996.4
2022-10-15T04:52:05.696Z,996.3
2022-10-15T04:53:07.417Z,996.3
2022-10-15T04:54:09.357Z,996.3
2022-10-15T04:55:11.479Z,996.3
2022-10-15T04:56:13.396Z,996.2
2022-10-15T04:57:14.376Z,996.3
2022-10-15T04:58:15.357Z,996.2
2022-10-15T04:59:16.317Z,996.2
2022-10-15T05:00:17.379Z,996.3
2022-10-15T05:01:18.389Z,996.3
2022-10-15T05:02:19.495Z,996.3
2022-10-15T05:03:21.503Z,996.3
2022-10-15T05:04:23.486Z,996.3
2022-10-15T05:05:25.404Z,996.3
2022-10-15T05:06:26.396Z,996.3
2022-10-15T05:07:27.596Z,996.3
2022-10-15T05:08:29.419Z,996.3
2022-10-15T05:09:31.437Z,996.4
2022-10-15T05:10:33.397Z,996.3
2022-10-15T05:11:35.397Z,996.3
2022-10-15T05:12:36.493Z,996.3
2022-10-15T05:13:38.456Z,996.3
2022-10-15T05:14:40.417Z,996.3
2022-10-15T05:15:42.455Z,996.2
2022-10-15T05:16:44.437Z,996.2
2022-10-15T05:17:46.430Z,996.2
2022-10-15T05:18:48.417Z,996.2
2022-10-15T05:19:49.398Z,996.2
2022-10-15T05:20:50.379Z,995.6
2022-10-15T05:21:51.399Z,996
2022-10-15T05:22:52.407Z,996.1
2022-10-15T05:23:54.461Z,996.2
2022-10-15T05:24:56.475Z,996.2
2022-10-15T05:25:58.956Z,996.2
2022-10-15T05:27:02.728Z,996.2
2022-10-15T05:28:02.516Z,996.2
2022-10-15T05:29:04.425Z,996.1
2022-10-15T05:30:06.477Z,996.1
2022-10-15T05:31:08.478Z,996.1
2022-10-15T05:32:09.358Z,996
2022-10-15T05:33:10.397Z,996
2022-10-15T05:34:11.376Z,996
2022-10-15T05:35:12.603Z,996
2022-10-15T05:36:14.437Z,996
2022-10-15T05:37:16.416Z,996
2022-10-15T05:38:18.458Z,996
2022-10-15T05:39:20.389Z,996
2022-10-15T05:40:22.479Z,996
2022-10-15T05:41:24.341Z,996
2022-10-15T05:42:25.336Z,995.9
2022-10-15T05:43:26.418Z,996
2022-10-15T05:44:27.436Z,996
2022-10-15T05:45:29.458Z,996
2022-10-15T05:46:31.437Z,996
2022-10-15T05:47:33.456Z,995.5
2022-10-15T05:48:35.538Z,995.9
2022-10-15T05:49:37.476Z,996.1
2022-10-15T05:50:39.451Z,996.1
2022-10-15T05:51:41.513Z,996.1
2022-10-15T05:52:43.457Z,996.1
2022-10-15T05:53:45.818Z,996.2
2022-10-15T05:54:47.477Z,996.2
2022-10-15T05:55:49.464Z,996.1
2022-10-15T05:56:51.336Z,996.2
2022-10-15T05:57:53.420Z,996.2
2022-10-15T05:58:55.454Z,996.2
2022-10-15T05:59:57.376Z,996.2
2022-10-15T06:00:59.456Z,996.2
2022-10-15T06:02:01.672Z,996.2
2022-10-15T06:03:03.489Z,996.2
2022-10-15T06:04:05.476Z,996.2
2022-10-15T06:05:07.438Z,996.1
2022-10-15T06:06:09.485Z,996.2
2022-10-15T06:07:10.396Z,996.2
2022-10-15T06:08:12.436Z,996.2
2022-10-15T06:09:14.377Z,996.1
2022-10-15T06:10:15.426Z,996.1
2022-10-15T06:11:17.476Z,996.2
2022-10-15T06:12:19.536Z,996.2
2022-10-15T06:13:21.522Z,996.3
2022-10-15T06:14:23.442Z,996.3
2022-10-15T06:15:25.440Z,996.3
2022-10-15T06:16:27.458Z,996.2
2022-10-15T06:17:29.406Z,996.3
2022-10-15T06:18:31.498Z,996.3
2022-10-15T06:19:33.433Z,995.7
2022-10-15T06:20:34.456Z,996.2
2022-10-15T06:21:36.458Z,996.3
2022-10-15T06:22:38.510Z,996.3
2022-10-15T06:23:40.436Z,996.3
2022-10-15T06:24:42.517Z,996.4
2022-10-15T06:25:44.497Z,996.3
2022-10-15T06:26:46.402Z,996.4
2022-10-15T06:27:47.416Z,996.4
2022-10-15T06:28:48.461Z,996.4
2022-10-15T06:29:49.444Z,996.4
2022-10-15T06:30:51.441Z,996.3
2022-10-15T06:31:52.478Z,996.4
2022-10-15T06:32:53.515Z,996.4
2022-10-15T06:33:55.437Z,996.5
2022-10-15T06:34:57.484Z,996.5
2022-10-15T06:35:59.397Z,996.5
2022-10-15T06:37:01.500Z,996.5
2022-10-15T06:38:03.472Z,996.5
2022-10-15T06:39:05.398Z,996.5
2022-10-15T06:40:06.477Z,996.5
2022-10-15T06:41:07.451Z,996.5
2022-10-15T06:42:08.438Z,996.5
2022-10-15T06:43:09.324Z,996.5
2022-10-15T06:44:10.497Z,996.5
2022-10-15T06:45:11.486Z,996.5
2022-10-15T06:46:12.436Z,996.5
2022-10-15T06:47:14.516Z,996.5
2022-10-15T06:48:16.516Z,996.5
2022-10-15T06:49:18.437Z,996.5
2022-10-15T06:50:20.402Z,996.5
2022-10-15T06:51:22.417Z,996.5
2022-10-15T06:52:24.641Z,996.5
2022-10-15T06:53:26.494Z,996.6
2022-10-15T06:54:28.427Z,996.6
2022-10-15T06:55:29.432Z,996.6
2022-10-15T06:56:31.476Z,996.6
2022-10-15T06:57:33.512Z,996.6
2022-10-15T06:58:35.446Z,996.6
2022-10-15T06:59:38.771Z,996.6
2022-10-15T07:00:38.453Z,996.6
2022-10-15T07:01:39.959Z,996.6
2022-10-15T07:02:40.436Z,996.6
2022-10-15T07:03:41.449Z,996.5
2022-10-15T07:04:43.416Z,996.6
2022-10-15T07:05:45.541Z,996.6
2022-10-15T07:06:47.437Z,996.6
2022-10-15T07:07:49.559Z,996.6
2022-10-15T07:08:51.482Z,996.6
2022-10-15T07:09:53.476Z,996.6
2022-10-15T07:10:55.478Z,996.6
2022-10-15T07:11:57.427Z,996.6
2022-10-15T07:12:59.479Z,996.6
2022-10-15T07:14:01.476Z,996.6
2022-10-15T07:15:02.492Z,996.6
2022-10-15T07:16:03.496Z,996.6
2022-10-15T07:17:05.436Z,996.6
2022-10-15T07:18:07.574Z,996.6
2022-10-15T07:19:09.394Z,996.7
2022-10-15T07:20:10.496Z,996.7
2022-10-15T07:22:12.465Z,996.7
2022-10-15T07:23:14.560Z,996.7
2022-10-15T07:24:16.456Z,996.7
2022-10-15T07:25:17.476Z,996.8
2022-10-15T07:26:18.504Z,996.7
2022-10-15T07:27:19.590Z,996.8
2022-10-15T07:28:20.509Z,996.8
2022-10-15T07:29:21.459Z,996.8
2022-10-15T07:30:22.419Z,996.8
2022-10-15T07:31:23.552Z,996.8
2022-10-15T07:32:25.904Z,996.8
2022-10-15T07:33:26.456Z,996.8
2022-10-15T07:34:28.445Z,996.8
2022-10-15T07:35:30.496Z,996.8
2022-10-15T07:36:32.456Z,996.8
2022-10-15T07:37:34.515Z,996.8
2022-10-15T07:38:36.481Z,996.8
2022-10-15T07:39:39.223Z,996.8
2022-10-15T07:40:39.418Z,996.8
2022-10-15T07:41:40.517Z,996.8
2022-10-15T07:42:41.467Z,996.8
2022-10-15T07:43:42.499Z,996.8
2022-10-15T07:44:43.417Z,996.8
2022-10-15T07:45:44.457Z,996.8
2022-10-15T07:46:45.397Z,996.8
2022-10-15T07:47:46.456Z,996.8
2022-10-15T07:48:47.458Z,996.8
2022-10-15T07:49:48.419Z,996.8
2022-10-15T07:50:49.456Z,996.8
2022-10-15T07:51:51.459Z,996.8
2022-10-15T07:52:52.457Z,996.8
2022-10-15T07:53:53.510Z,996.2
2022-10-15T07:54:54.537Z,996.6
2022-10-15T07:55:56.553Z,996.7
2022-10-15T07:56:58.497Z,996.8
2022-10-15T07:58:00.517Z,996.8
2022-10-15T07:59:02.478Z,996.7
2022-10-15T08:00:04.498Z,996.7
2022-10-15T08:01:05.478Z,996.8
2022-10-15T08:02:06.556Z,996.8
2022-10-15T08:03:08.477Z,996.7
2022-10-15T08:04:09.560Z,996.7
2022-10-15T08:05:10.441Z,996.7
2022-10-15T08:06:11.496Z,996.8
2022-10-15T08:07:13.476Z,996.7
2022-10-15T08:08:15.596Z,996.6
2022-10-15T08:09:17.516Z,996.7
2022-10-15T08:10:19.436Z,996.7
2022-10-15T08:11:21.506Z,996.7
2022-10-15T08:12:23.861Z,996.8
2022-10-15T08:13:25.557Z,996.8
2022-10-15T08:14:27.430Z,996.8
2022-10-15T08:15:29.500Z,996.7
2022-10-15T08:16:30.476Z,996.7
2022-10-15T08:17:31.499Z,996.8
2022-10-15T08:18:33.502Z,996.9
2022-10-15T08:19:35.493Z,996.8
2022-10-15T08:20:36.517Z,996.9
2022-10-15T08:21:37.524Z,996.9
2022-10-15T08:22:38.636Z,996.9
2022-10-15T08:23:40.465Z,996.9
2022-10-15T08:24:42.541Z,996.9
2022-10-15T08:25:44.554Z,996.8
2022-10-15T08:26:46.496Z,996.8
2022-10-15T08:27:48.541Z,996.8
2022-10-15T08:28:50.527Z,996.9
2022-10-15T08:29:52.477Z,996.9
2022-10-15T08:30:54.599Z,996.9
2022-10-15T08:31:56.557Z,996.9
2022-10-15T08:32:58.586Z,997
2022-10-15T08:34:00.538Z,997
2022-10-15T08:35:02.636Z,996.9
2022-10-15T08:36:04.506Z,997
2022-10-15T08:37:06.563Z,997
2022-10-15T08:38:08.538Z,997
2022-10-15T08:39:10.547Z,997.1
2022-10-15T08:40:12.606Z,997.1
2022-10-15T08:41:14.476Z,997.1
2022-10-15T08:42:16.738Z,997
2022-10-15T08:43:18.596Z,997
2022-10-15T08:44:20.557Z,997.1
2022-10-15T08:45:22.557Z,997.2
2022-10-15T08:46:24.537Z,997.1
2022-10-15T08:47:26.726Z,997
2022-10-15T08:48:28.487Z,997
2022-10-15T08:49:30.513Z,997
2022-10-15T08:50:32.487Z,997
2022-10-15T08:51:34.453Z,997
2022-10-15T08:52:35.559Z,997
2022-10-15T08:53:37.498Z,997
2022-10-15T08:54:39.530Z,997
2022-10-15T08:55:41.581Z,997
2022-10-15T08:56:43.517Z,997
2022-10-15T08:57:45.617Z,997
2022-10-15T08:58:47.416Z,997
2022-10-15T08:59:49.219Z,996.9
2022-10-15T09:00:51.452Z,996.9
2022-10-15T09:01:53.548Z,996.8
2022-10-15T09:02:55.608Z,996.9
2022-10-15T09:03:57.479Z,996.9
2022-10-15T09:05:00.577Z,997
2022-10-15T09:06:02.576Z,997
2022-10-15T09:07:04.558Z,996.9
2022-10-15T09:08:06.485Z,996.9
2022-10-15T09:09:08.540Z,997
2022-10-15T09:10:10.657Z,996.7
2022-10-15T09:11:12.646Z,996.9
2022-10-15T09:12:14.577Z,996.9
2022-10-15T09:13:16.767Z,997
2022-10-15T09:14:18.481Z,997
2022-10-15T09:15:21.495Z,996.9
2022-10-15T09:16:21.517Z,996.9
2022-10-15T09:17:22.916Z,997
2022-10-15T09:18:23.496Z,997
2022-10-15T09:19:24.583Z,997
2022-10-15T09:20:26.596Z,997
2022-10-15T09:21:28.624Z,997
2022-10-15T09:22:30.493Z,997
2022-10-15T09:23:32.538Z,997
2022-10-15T09:24:34.557Z,997
2022-10-15T09:25:36.504Z,996.9
2022-10-15T09:26:38.581Z,996.9
2022-10-15T09:27:40.656Z,996.9
2022-10-15T09:29:49.617Z,997
2022-10-15T09:30:51.597Z,997
2022-10-15T09:31:53.615Z,996.9
2022-10-15T09:32:55.443Z,997
2022-10-15T09:33:57.578Z,997
2022-10-15T09:34:59.536Z,997
2022-10-15T09:36:01.608Z,997
2022-10-15T09:37:03.557Z,997
2022-10-15T09:38:06.041Z,997
2022-10-15T09:39:07.597Z,997
2022-10-15T09:40:09.702Z,997.1
2022-10-15T09:41:11.577Z,997.1
2022-10-15T09:42:13.660Z,997
2022-10-15T09:43:15.704Z,997
2022-10-15T09:44:18.510Z,996.9
2022-10-15T09:45:22.177Z,997
2022-10-15T09:46:23.551Z,997
2022-10-15T09:47:25.577Z,997
2022-10-15T09:48:27.520Z,997
2022-10-15T09:49:33.977Z,997
2022-10-15T09:50:31.586Z,997
2022-10-15T09:51:33.537Z,996.5
2022-10-15T09:52:35.678Z,997
2022-10-15T09:53:37.537Z,997.1
2022-10-15T09:54:39.516Z,997.1
2022-10-15T09:55:41.622Z,997.1
2022-10-15T09:56:43.578Z,997.2
2022-10-15T09:57:45.713Z,997.1
2022-10-15T09:58:47.490Z,997.1
2022-10-15T09:59:48.530Z,997.1
2022-10-15T10:00:49.604Z,997.2
2022-10-15T10:01:51.649Z,997.2
2022-10-15T10:02:53.509Z,996.7
2022-10-15T10:03:54.536Z,997.1
2022-10-15T10:04:55.593Z,997.2
2022-10-15T10:05:57.856Z,997.2
2022-10-15T10:06:59.550Z,997.3
2022-10-15T10:08:01.579Z,997.3
2022-10-15T10:09:03.497Z,997.3
2022-10-15T10:10:05.500Z,997.3
2022-10-15T10:11:06.566Z,997.3
2022-10-15T10:12:08.578Z,997.3
2022-10-15T10:13:10.600Z,997.3
2022-10-15T10:14:12.478Z,997.3
2022-10-15T10:15:13.501Z,997.3
2022-10-15T10:16:14.562Z,997.2
2022-10-15T10:17:16.608Z,997.3
2022-10-15T10:18:18.495Z,997.3
2022-10-15T10:19:19.576Z,997.2
2022-10-15T10:20:20.497Z,997.2
2022-10-15T10:21:22.557Z,997.3
2022-10-15T10:22:24.721Z,997.3
2022-10-15T10:23:25.468Z,997.3
2022-10-15T10:24:26.496Z,997.3
2022-10-15T10:25:27.552Z,997.3
2022-10-15T10:26:29.499Z,997.2
2022-10-15T10:27:30.499Z,997.2
2022-10-15T10:28:32.542Z,997.3
2022-10-15T10:29:35.215Z,997.2
2022-10-15T10:30:36.577Z,997.2
2022-10-15T10:31:38.617Z,997.2
2022-10-15T10:32:40.497Z,997.2
2022-10-15T10:33:41.606Z,997.2
2022-10-15T10:34:44.241Z,997.2
2022-10-15T10:35:45.533Z,997.3
2022-10-15T10:36:47.533Z,997.2
2022-10-15T10:37:49.538Z,997.3
2022-10-15T10:38:51.541Z,997.2
2022-10-15T10:39:53.549Z,997.2
2022-10-15T10:40:54.576Z,997.2
2022-10-15T10:41:56.575Z,997.2
2022-10-15T10:42:59.633Z,997.2
2022-10-15T10:44:00.682Z,997.2
2022-10-15T10:45:02.586Z,997.3
2022-10-15T10:46:04.595Z,997.2
2022-10-15T10:47:06.553Z,997.3
2022-10-15T10:48:07.532Z,997.2
2022-10-15T10:49:09.562Z,997.2
2022-10-15T10:50:11.576Z,997.2
2022-10-15T10:51:16.587Z,997.2
2022-10-15T10:52:15.616Z,997.1
2022-10-15T10:53:17.600Z,996.9
2022-10-15T10:54:19.530Z,997.1
2022-10-15T10:55:21.590Z,997.2
2022-10-15T10:56:23.593Z,997.2
2022-10-15T10:57:25.770Z,997.2
2022-10-15T10:58:27.602Z,997.2
2022-10-15T10:59:29.562Z,997.2
2022-10-15T11:00:31.828Z,997.1
2022-10-15T11:01:33.561Z,996.9
2022-10-15T11:02:35.558Z,997.1
2022-10-15T11:03:37.618Z,997.1
2022-10-15T11:04:39.511Z,997.1
2022-10-15T11:05:41.525Z,997.1
2022-10-15T11:06:43.559Z,997.1
2022-10-15T11:07:45.525Z,997.1
2022-10-15T11:08:47.611Z,997.1
2022-10-15T11:09:51.067Z,997.1
2022-10-15T11:10:51.556Z,997.1
2022-10-15T11:11:53.557Z,997
2022-10-15T11:12:55.520Z,997
2022-10-15T11:13:56.600Z,997.1
2022-10-15T11:14:58.569Z,997
2022-10-15T11:15:59.597Z,997
2022-10-15T11:17:01.541Z,997
2022-10-15T11:18:02.612Z,997
2022-10-15T11:19:09.314Z,997
2022-10-15T11:20:25.612Z,997
2022-10-15T11:21:07.671Z,997
2022-10-15T11:22:08.600Z,997
2022-10-15T11:23:09.581Z,997
2022-10-15T11:24:10.625Z,996.9
2022-10-15T11:25:11.575Z,996.9
2022-10-15T11:26:12.576Z,996.9
2022-10-15T11:27:13.577Z,996.8
2022-10-15T11:28:14.599Z,996.8
2022-10-15T11:29:16.650Z,996.8
2022-10-15T11:30:18.560Z,996.8
2022-10-15T11:31:19.656Z,996.8
2022-10-15T11:32:24.645Z,996.8
2022-10-15T11:33:23.618Z,996.8
2022-10-15T11:34:25.603Z,996.9
2022-10-15T11:35:41.295Z,996.8
2022-10-15T11:36:29.618Z,996.8
2022-10-15T11:37:31.637Z,996.8
2022-10-15T11:38:33.568Z,996.9
2022-10-15T11:39:35.569Z,996.8
2022-10-15T11:40:37.597Z,996.8
2022-10-15T11:41:39.656Z,996.8
2022-10-15T11:42:41.508Z,996.8
2022-10-15T11:43:42.561Z,996.8
2022-10-15T11:44:44.663Z,996.8
2022-10-15T11:45:46.601Z,996.8
2022-10-15T11:46:48.629Z,996.8
2022-10-15T11:47:50.567Z,996.9
2022-10-15T11:48:52.537Z,996.9
2022-10-15T11:49:53.591Z,996.9
2022-10-15T11:50:54.597Z,996.9
2022-10-15T11:51:56.657Z,996.8
2022-10-15T11:52:58.560Z,996.8
2022-10-15T11:53:59.642Z,996.8
2022-10-15T11:55:01.629Z,996.8
2022-10-15T11:56:03.645Z,996.8
2022-10-15T11:57:05.571Z,996.8
2022-10-15T11:58:06.576Z,996.8
2022-10-15T11:59:08.657Z,996.8
2022-10-15T12:00:10.677Z,996.8
2022-10-15T12:01:12.681Z,996.8
2022-10-15T12:02:14.678Z,996.9
2022-10-15T12:03:16.699Z,996.9
2022-10-15T12:04:18.684Z,996.9
2022-10-15T12:05:20.579Z,996.9
2022-10-15T12:06:22.617Z,996.9
2022-10-15T12:07:27.559Z,996.8
2022-10-15T12:08:28.636Z,996.8
2022-10-15T12:09:30.692Z,996.9
2022-10-15T12:10:32.697Z,997
2022-10-15T12:11:34.584Z,996.9
2022-10-15T12:12:35.536Z,996.9
2022-10-15T12:13:36.618Z,996.9
2022-10-15T12:14:38.636Z,996.8
2022-10-15T12:15:39.583Z,996.9
2022-10-15T12:16:40.641Z,996.9
2022-10-15T12:17:41.558Z,996.9
2022-10-15T12:18:42.645Z,996.9
2022-10-15T12:19:43.592Z,996.8
2022-10-15T12:20:44.676Z,996.9
2022-10-15T12:21:46.663Z,996.9
2022-10-15T12:22:48.620Z,996.8
2022-10-15T12:23:50.578Z,996.9
2022-10-15T12:24:51.596Z,996.9
2022-10-15T12:25:52.577Z,996.9
2022-10-15T12:26:53.592Z,996.9
2022-10-15T12:27:55.642Z,996.8
2022-10-15T12:28:59.374Z,996.8
2022-10-15T12:29:59.596Z,996.8
2022-10-15T12:31:01.200Z,996.8
2022-10-15T12:32:02.662Z,996.8
2022-10-15T12:33:04.722Z,996.8
2022-10-15T12:34:06.657Z,996.8
2022-10-15T12:35:08.650Z,996.8
2022-10-15T12:36:10.601Z,996.8
2022-10-15T12:37:13.635Z,996.8
2022-10-15T12:38:15.697Z,996.7
2022-10-15T12:39:21.564Z,996.7
2022-10-15T12:40:17.631Z,996.7
2022-10-15T12:41:18.699Z,996.7
2022-10-15T12:42:20.647Z,996.7
2022-10-15T12:43:22.905Z,996.7
2022-10-15T12:44:27.668Z,996.7
2022-10-15T12:45:26.637Z,996.7
2022-10-15T12:46:27.617Z,996.7
2022-10-15T12:47:28.661Z,996.7
2022-10-15T12:48:29.661Z,996.7
2022-10-15T12:49:31.697Z,996.7
2022-10-15T12:50:33.716Z,996.7
2022-10-15T12:51:35.676Z,996.8
2022-10-15T12:52:37.698Z,996.7
2022-10-15T12:53:39.661Z,996.8
2022-10-15T12:54:41.695Z,996.8
2022-10-15T12:55:43.846Z,996.9
2022-10-15T12:56:45.698Z,996.9
2022-10-15T12:57:47.678Z,996.9
2022-10-15T12:58:49.583Z,996.9
2022-10-15T12:59:50.585Z,996.8
2022-10-15T13:00:51.756Z,996.8
2022-10-15T13:01:53.677Z,996.9
2022-10-15T13:02:55.772Z,996.8
2022-10-15T13:03:57.646Z,996.8
2022-10-15T13:04:59.637Z,996.9
2022-10-15T13:06:01.860Z,996.8
2022-10-15T13:07:03.659Z,996.8
2022-10-15T13:08:05.636Z,996.8
2022-10-15T13:09:07.636Z,996.9
2022-10-15T13:10:09.666Z,996.9
2022-10-15T13:11:11.673Z,996.9
2022-10-15T13:12:13.604Z,996.9
2022-10-15T13:13:14.697Z,996.9
2022-10-15T13:14:16.976Z,996.9
2022-10-15T13:15:18.730Z,996.9
2022-10-15T13:16:20.621Z,996.9
2022-10-15T13:17:22.681Z,996.9
2022-10-15T13:18:24.681Z,996.9
2022-10-15T13:19:26.727Z,996.9
2022-10-15T13:20:28.686Z,996.9
2022-10-15T13:21:30.601Z,996.9
2022-10-15T13:22:32.701Z,996.9
2022-10-15T13:23:34.665Z,996.9
2022-10-15T13:24:36.714Z,996.9
2022-10-15T13:25:38.677Z,996.9
2022-10-15T13:26:40.677Z,996.8